Time;durP1;ratioP1;P1;durP2;ratioP2;P2;SDS_P1;SDS_P2;PMS_P1;PMS_P2;Temp;Humidity;BMP_temperature;BMP_pressure;BME280_temperature;BME280_humidity;BME280_pressure;Samples;Min_cycle;Max_cycle;Signal;HPM_P1;HPM_P2
2022/12/23 00:00:39;;;;;;;1999.90;999.90;;;;;;;6.79;100.00;97747.41;5078392;28;20078;-76
2022/12/23 00:03:05;;;;;;;1999.90;999.90;;;;;;;6.62;100.00;97725.97;5073584;28;20020;-75
2022/12/23 00:05:35;;;;;;;1999.90;999.90;;;;;;;6.83;100.00;97743.03;5073200;28;20105;-78
2022/12/23 00:08:01;;;;;;;1999.90;999.90;;;;;;;6.76;100.00;97740.63;5073105;28;20095;-77
2022/12/23 00:10:26;;;;;;;1999.90;999.90;;;;;;;6.80;100.00;97735.44;5072993;28;20441;-75
2022/12/23 00:15:35;;;;;;;1999.90;999.90;;;;;;;6.93;100.00;97740.28;5054505;28;20418;-76
2022/12/23 00:18:01;;;;;;;1999.90;999.90;;;;;;;6.95;100.00;97728.03;5055869;28;20037;-78
2022/12/23 00:20:26;;;;;;;1999.90;999.90;;;;;;;6.98;100.00;97732.13;5056646;28;20064;-76
2022/12/23 00:23:03;;;;;;;1999.90;999.90;;;;;;;7.16;100.00;97739.66;5058708;28;20029;-76
2022/12/23 00:25:43;;;;;;;1999.90;999.90;;;;;;;7.07;100.00;97729.66;5058205;28;20029;-81
2022/12/23 00:28:13;;;;;;;1999.90;999.90;;;;;;;7.09;100.00;97733.72;5058279;28;20432;-78
2022/12/23 00:30:53;;;;;;;1999.90;999.90;;;;;;;7.09;100.00;97730.19;5059616;28;20162;-78
2022/12/23 00:33:21;;;;;;;1999.90;999.90;;;;;;;7.15;100.00;97724.44;5060705;28;20588;-85
2022/12/23 00:35:47;;;;;;;1999.90;999.90;;;;;;;7.16;100.00;97715.19;5058947;28;20029;-80
2022/12/23 00:38:13;;;;;;;1999.90;999.90;;;;;;;7.14;100.00;97703.75;5058272;28;20044;-76
2022/12/23 00:43:24;;;;;;;1999.90;999.90;;;;;;;7.24;100.00;97695.56;5057647;28;20512;-85
2022/12/23 00:45:49;;;;;;;1999.90;999.90;;;;;;;7.27;100.00;97694.19;5058034;28;20028;-80
2022/12/23 00:50:59;;;;;;;1999.90;999.90;;;;;;;7.41;100.00;97684.31;5056118;28;20087;-78
2022/12/23 00:53:24;;;;;;;1999.90;999.90;;;;;;;7.39;100.00;97697.41;5054339;28;20033;-74
2022/12/23 00:55:50;;;;;;;1999.90;999.90;;;;;;;7.34;100.00;97697.41;5051592;28;20025;-75
2022/12/23 00:58:17;;;;;;;1999.90;999.90;;;;;;;7.31;100.00;97697.97;5051499;28;20025;-76
2022/12/23 01:06:13;;;;;;;1999.90;999.90;;;;;;;7.34;100.00;97695.50;5031295;28;20144;-77
2022/12/23 01:08:38;;;;;;;1999.90;999.90;;;;;;;7.40;100.00;97699.00;5031374;28;20021;-75
2022/12/23 01:11:06;;;;;;;1999.90;999.90;;;;;;;7.42;100.00;97702.28;5030853;28;20083;-76
2022/12/23 01:13:32;;;;;;;1999.90;999.90;;;;;;;7.36;100.00;97698.75;5031377;28;20033;-76
2022/12/23 01:16:16;;;;;;;1999.90;999.90;;;;;;;7.25;100.00;97702.63;5031255;28;20076;-76
2022/12/23 01:18:41;;;;;;;1999.90;999.90;;;;;;;7.27;100.00;97710.50;5029988;28;20036;-76
2022/12/23 01:21:08;;;;;;;1999.90;999.90;;;;;;;7.14;100.00;97700.25;5031614;28;20022;-76
2022/12/23 01:23:34;;;;;;;1999.90;999.90;;;;;;;7.11;100.00;97701.59;5031329;28;20033;-77
2022/12/23 01:26:03;;;;;;;1999.90;999.90;;;;;;;7.07;100.00;97700.56;5031179;28;20072;-77
2022/12/23 01:28:30;;;;;;;1999.90;999.90;;;;;;;7.10;100.00;97697.28;5031306;28;20076;-79
2022/12/23 01:30:56;;;;;;;1999.90;999.90;;;;;;;6.99;100.00;97698.41;5031002;28;20109;-78
2022/12/23 01:33:22;;;;;;;1999.90;999.90;;;;;;;7.05;100.00;97700.00;5031009;28;20026;-77
2022/12/23 01:35:47;;;;;;;1999.90;999.90;;;;;;;7.03;100.00;97704.91;5031133;28;20512;-76
2022/12/23 01:38:12;;;;;;;1999.90;999.90;;;;;;;7.03;100.00;97694.03;5030993;28;20565;-76
2022/12/23 01:40:43;;;;;;;1999.90;999.90;;;;;;;7.10;100.00;97710.06;5030696;28;20025;-77
2022/12/23 01:43:17;;;;;;;1999.90;999.90;;;;;;;7.10;100.00;97708.16;5031687;28;20406;-77
2022/12/23 01:45:42;;;;;;;1999.90;999.90;;;;;;;7.10;100.00;97710.88;5034709;28;20053;-76
2022/12/23 01:48:15;;;;;;;1999.90;999.90;;;;;;;7.07;100.00;97705.19;5034522;28;20124;-76
2022/12/23 01:50:43;;;;;;;1999.90;999.90;;;;;;;7.00;100.00;97700.03;5031270;28;20029;-74
2022/12/23 01:53:24;;;;;;;1999.90;999.90;;;;;;;7.10;100.00;97710.88;5030590;28;20498;-77
2022/12/23 01:56:00;;;;;;;1999.90;999.90;;;;;;;7.15;100.00;97710.03;5030606;28;20474;-76
2022/12/23 01:58:31;;;;;;;1999.90;999.90;;;;;;;7.13;100.00;97707.59;5030483;28;20021;-74
2022/12/23 02:03:43;;;;;;;1999.90;999.90;;;;;;;7.13;100.00;97696.72;5030742;28;20087;-74
2022/12/23 02:09:21;;;;;;;1999.90;999.90;;;;;;;7.07;100.00;97678.81;5018112;28;20042;-76
2022/12/23 02:12:07;;;;;;;1999.90;999.90;;;;;;;7.06;100.00;97676.34;5030362;28;20479;-77
2022/12/23 02:17:42;;;;;;;1999.90;999.90;;;;;;;6.87;100.00;97681.59;5031128;28;20060;-75
2022/12/23 02:20:35;;;;;;;1999.90;999.90;;;;;;;6.89;100.00;97682.16;5036443;28;20030;-75
2022/12/23 02:23:14;;;;;;;1999.90;999.90;;;;;;;6.86;100.00;97677.28;5033811;28;20030;-76
2022/12/23 02:25:56;;;;;;;1999.90;999.90;;;;;;;6.87;100.00;97684.31;5034478;28;20022;-75
2022/12/23 02:28:53;;;;;;;1999.90;999.90;;;;;;;6.84;100.00;97663.94;5034291;28;20486;-76
2022/12/23 02:31:29;;;;;;;1999.90;999.90;;;;;;;6.90;100.00;97681.03;5034390;28;20061;-77
2022/12/23 02:34:05;;;;;;;1999.90;999.90;;;;;;;6.87;100.00;97676.16;5034355;28;20030;-76
2022/12/23 02:36:58;;;;;;;1999.90;999.90;;;;;;;6.79;100.00;97682.19;5034412;28;20030;-77
2022/12/23 02:39:32;;;;;;;1999.90;999.90;;;;;;;6.89;100.00;97679.44;5034163;28;20033;-77
2022/12/23 02:42:09;;;;;;;1999.90;999.90;;;;;;;6.95;100.00;97672.88;5034067;28;20140;-77
2022/12/23 02:44:43;;;;;;;1999.90;999.90;;;;;;;6.89;100.00;97671.28;5034109;28;20038;-74
2022/12/23 02:47:13;;;;;;;1999.90;999.90;;;;;;;6.85;100.00;97665.59;5050323;28;20032;-75
2022/12/23 02:49:42;;;;;;;1999.90;999.90;;;;;;;6.82;100.00;97673.47;5065873;28;20095;-77
2022/12/23 02:52:13;;;;;;;1999.90;999.90;;;;;;;6.80;100.00;97672.91;5074174;28;20380;-75
2022/12/23 02:54:47;;;;;;;1999.90;999.90;;;;;;;6.97;100.00;97684.28;5073747;28;20846;-76
2022/12/23 02:57:16;;;;;;;1999.90;999.90;;;;;;;6.78;100.00;97685.97;5073686;28;20366;-76
2022/12/23 02:59:47;;;;;;;1999.90;999.90;;;;;;;6.72;100.00;97676.22;5073455;28;20389;-76
2022/12/23 03:02:12;;;;;;;1999.90;999.90;;;;;;;6.77;100.00;97668.03;5073648;28;20033;-76
2022/12/23 03:04:39;;;;;;;1999.90;999.90;;;;;;;6.87;100.00;97657.13;5073682;28;20078;-75
2022/12/23 03:07:05;;;;;;;1999.90;999.90;;;;;;;6.84;100.00;97658.50;5073582;28;20463;-76
2022/12/23 03:09:44;;;;;;;1999.90;999.90;;;;;;;7.00;100.00;97642.94;5073504;28;20373;-76
2022/12/23 03:12:34;;;;;;;1999.90;999.90;;;;;;;7.03;100.00;97639.66;5073430;28;20394;-75
2022/12/23 03:15:23;;;;;;;1999.90;999.90;;;;;;;6.93;100.00;97620.66;5073404;28;20068;-75
2022/12/23 03:18:17;;;;;;;1999.90;999.90;;;;;;;6.85;100.00;97632.16;5073333;28;20032;-75
2022/12/23 03:20:53;;;;;;;1999.90;999.90;;;;;;;6.93;100.00;97607.91;5057463;28;20453;-75
2022/12/23 03:23:37;;;;;;;1999.90;999.90;;;;;;;6.88;100.00;97593.53;5073362;28;20119;-75
2022/12/23 03:26:10;;;;;;;1999.90;999.90;;;;;;;6.92;100.00;97594.59;5073423;28;20029;-75
2022/12/23 03:29:00;;;;;;;1999.90;999.90;;;;;;;6.63;100.00;97567.31;5073474;28;20472;-75
2022/12/23 03:31:28;;;;;;;1999.90;999.90;;;;;;;6.74;100.00;97616.97;5073402;28;20044;-74
2022/12/23 03:34:05;;;;;;;1999.90;999.90;;;;;;;6.83;100.00;97615.28;5072617;28;20028;-75
2022/12/23 03:36:37;;;;;;;1999.90;999.90;;;;;;;6.82;100.00;97619.13;5061586;28;20116;-75
2022/12/23 03:39:06;;;;;;;1999.90;999.90;;;;;;;6.88;100.00;97632.41;5043200;28;20079;-74
2022/12/23 03:41:40;;;;;;;1999.90;999.90;;;;;;;6.86;100.00;97625.63;5052416;28;20044;-75
2022/12/23 03:44:09;;;;;;;1999.90;999.90;;;;;;;6.86;100.00;97622.91;5032056;28;20022;-75
2022/12/23 03:46:43;;;;;;;1999.90;999.90;;;;;;;6.89;100.00;97622.34;5032803;28;20033;-75
2022/12/23 03:49:17;;;;;;;1999.90;999.90;;;;;;;6.93;100.00;97617.94;5032554;28;20037;-75
2022/12/23 03:51:58;;;;;;;1999.90;999.90;;;;;;;6.93;100.00;97615.25;5032920;28;20025;-74
2022/12/23 03:54:30;;;;;;;1999.90;999.90;;;;;;;6.91;100.00;97609.28;5038037;28;20363;-83
2022/12/23 03:57:04;;;;;;;1999.90;999.90;;;;;;;6.94;100.00;97606.00;5057663;28;20025;-80
2022/12/23 03:59:37;;;;;;;1999.90;999.90;;;;;;;6.88;100.00;97599.78;5052448;28;20029;-75
2022/12/23 04:02:25;;;;;;;1999.90;999.90;;;;;;;6.95;100.00;97615.78;5051725;28;20061;-74
2022/12/23 04:05:23;;;;;;;1999.90;999.90;;;;;;;6.91;100.00;97615.53;5050816;28;20406;-75
2022/12/23 04:08:10;;;;;;;1999.90;999.90;;;;;;;6.96;100.00;97614.66;5053715;28;20033;-80
2022/12/23 04:10:36;;;;;;;1999.90;999.90;;;;;;;6.92;100.00;97613.63;5057223;28;20052;-75
2022/12/23 04:13:02;;;;;;;1999.90;999.90;;;;;;;6.92;100.00;97602.75;5052373;28;20404;-75
2022/12/23 04:15:28;;;;;;;1999.90;999.90;;;;;;;6.81;100.00;97574.00;5052298;28;20033;-75
2022/12/23 04:17:55;;;;;;;1999.90;999.90;;;;;;;6.84;100.00;97601.44;5052324;28;20033;-75
2022/12/23 04:20:21;;;;;;;1999.90;999.90;;;;;;;6.91;100.00;97598.41;5052036;28;20025;-75
2022/12/23 04:22:46;;;;;;;1999.90;999.90;;;;;;;6.93;100.00;97594.31;5052375;28;20792;-75
2022/12/23 04:25:13;;;;;;;1999.90;999.90;;;;;;;6.88;100.00;97607.94;5051702;28;20032;-76
2022/12/23 04:27:39;;;;;;;1999.90;999.90;;;;;;;6.85;100.00;97604.97;5051998;28;20036;-75
2022/12/23 04:30:06;;;;;;;1999.90;999.90;;;;;;;6.97;100.00;97602.72;5051938;28;20037;-75
2022/12/23 04:32:32;;;;;;;1999.90;999.90;;;;;;;6.88;100.00;97583.47;5051641;28;20521;-75
2022/12/23 04:34:57;;;;;;;1999.90;999.90;;;;;;;6.88;100.00;97577.22;5051637;28;20147;-76
2022/12/23 04:37:22;;;;;;;1999.90;999.90;;;;;;;6.80;100.00;97578.59;5051761;28;20108;-75
2022/12/23 04:39:48;;;;;;;1999.90;999.90;;;;;;;6.82;100.00;97581.06;5051583;28;20021;-76
2022/12/23 04:42:13;;;;;;;1999.90;999.90;;;;;;;6.87;100.00;97581.03;5052281;28;20104;-76
2022/12/23 04:44:38;;;;;;;1999.90;999.90;;;;;;;6.88;100.00;97588.09;5051409;28;20036;-75
2022/12/23 04:47:04;;;;;;;1999.90;999.90;;;;;;;6.90;100.00;97584.00;5052281;28;20017;-75
2022/12/23 04:49:30;;;;;;;1999.90;999.90;;;;;;;6.92;100.00;97573.63;5051989;28;20048;-75
2022/12/23 04:51:55;;;;;;;1999.90;999.90;;;;;;;7.10;100.00;97577.63;5052078;28;20052;-77
2022/12/23 04:54:20;;;;;;;1999.90;999.90;;;;;;;7.12;100.00;97580.88;5051304;28;20028;-75
2022/12/23 04:56:46;;;;;;;1999.90;999.90;;;;;;;7.07;100.00;97578.19;5051623;28;20434;-76
2022/12/23 04:59:11;;;;;;;1999.90;999.90;;;;;;;7.05;100.00;97582.28;5051607;28;20498;-77
2022/12/23 05:01:36;;;;;;;1999.90;999.90;;;;;;;7.02;100.00;97591.78;5051436;28;20061;-76
2022/12/23 05:04:02;;;;;;;1999.90;999.90;;;;;;;6.92;100.00;97584.50;5051295;28;20123;-75
2022/12/23 05:06:34;;;;;;;;;;;;;;;6.91;100.00;97568.50;5088762;27;20379;-76
2022/12/23 05:08:59;;;;;;;;;;;;;;;6.85;100.00;97562.28;5088870;28;20296;-76
2022/12/23 05:11:25;;;;;;;1999.90;999.90;;;;;;;6.95;100.00;97573.06;5088172;28;20357;-75
2022/12/23 05:13:50;;;;;;;1999.90;999.90;;;;;;;7.01;100.00;97579.31;5086693;28;20047;-76
2022/12/23 05:16:16;;;;;;;1999.90;999.90;;;;;;;6.94;100.00;97571.47;5088101;28;20028;-75
2022/12/23 05:18:41;;;;;;;1999.90;999.90;;;;;;;6.90;100.00;97566.88;5087943;28;20020;-74
2022/12/23 05:21:06;;;;;;;1999.90;999.90;;;;;;;6.85;100.00;97577.78;5086581;28;20027;-75
2022/12/23 05:23:32;;;;;;;1999.90;999.90;;;;;;;6.88;100.00;97578.03;5088009;28;20035;-75
2022/12/23 05:25:57;;;;;;;1999.90;999.90;;;;;;;6.78;100.00;97582.69;5086680;28;20062;-75
2022/12/23 05:28:22;;;;;;;1999.90;999.90;;;;;;;6.70;100.00;97580.59;5087868;28;20477;-77
2022/12/23 05:30:48;;;;;;;1999.90;999.90;;;;;;;6.72;100.00;97572.94;5087701;28;20028;-75
2022/12/23 05:33:14;;;;;;;1999.90;999.90;;;;;;;6.74;100.00;97570.75;5087784;28;20477;-74
2022/12/23 05:35:39;;;;;;;1999.90;999.90;;;;;;;6.73;100.00;97575.41;5087696;28;20036;-75
2022/12/23 05:38:05;;;;;;;1999.90;999.90;;;;;;;6.74;100.00;97582.44;5087435;28;20020;-76
2022/12/23 05:40:30;;;;;;;1999.90;999.90;;;;;;;6.73;100.00;97585.47;5087600;28;20477;-76
2022/12/23 05:42:56;;;;;;;1999.90;999.90;;;;;;;6.66;100.00;97591.19;5087633;28;20029;-75
2022/12/23 05:45:21;;;;;;;1999.90;999.90;;;;;;;6.66;100.00;97593.09;5087422;28;20119;-75
2022/12/23 05:47:47;;;;;;;1999.90;999.90;;;;;;;6.66;100.00;97580.31;5087744;28;20492;-76
2022/12/23 05:50:12;;;;;;;1999.90;999.90;;;;;;;6.65;100.00;97589.56;5086071;28;20521;-75
2022/12/23 05:52:37;;;;;;;1999.90;999.90;;;;;;;6.70;100.00;97594.16;5087737;28;20111;-75
2022/12/23 05:55:04;;;;;;;1999.90;999.90;;;;;;;6.70;100.00;97600.44;5086621;28;20381;-77
2022/12/23 05:57:30;;;;;;;1999.90;999.90;;;;;;;6.70;100.00;97607.75;5091481;28;20020;-79
2022/12/23 05:59:56;;;;;;;1999.90;999.90;;;;;;;6.68;100.00;97596.34;5088162;28;20412;-75
2022/12/23 06:02:21;;;;;;;1999.90;999.90;;;;;;;6.70;100.00;97603.13;5088074;28;20107;-77
2022/12/23 06:04:46;;;;;;;1999.90;999.90;;;;;;;6.75;100.00;97610.44;5090040;28;20493;-79
2022/12/23 06:07:12;;;;;;;1999.90;999.90;;;;;;;6.71;100.00;97631.91;5089774;28;20424;-75
2022/12/23 06:09:37;;;;;;;1999.90;999.90;;;;;;;6.78;100.00;97620.75;5085986;28;20087;-75
2022/12/23 06:12:02;;;;;;;1999.90;999.90;;;;;;;6.77;100.00;97630.00;5085940;28;20072;-76
2022/12/23 06:14:28;;;;;;;1999.90;999.90;;;;;;;6.70;100.00;97624.06;5087092;28;20039;-75
2022/12/23 06:16:53;;;;;;;1999.90;999.90;;;;;;;6.55;100.00;97610.53;5078012;28;20055;-75
2022/12/23 06:19:18;;;;;;;1999.90;999.90;;;;;;;6.59;100.00;97603.44;5072701;28;20021;-75
2022/12/23 06:21:44;;;;;;;1999.90;999.90;;;;;;;6.58;100.00;97602.63;5066337;28;20082;-74
2022/12/23 06:24:09;;;;;;;1999.90;999.90;;;;;;;6.66;100.00;97612.94;5072707;28;20090;-75
2022/12/23 06:26:35;;;;;;;1999.90;999.90;;;;;;;6.75;100.00;97602.28;5072872;28;20029;-76
2022/12/23 06:29:01;;;;;;;1999.90;999.90;;;;;;;6.76;100.00;97617.50;5054432;28;20115;-75
2022/12/23 06:31:26;;;;;;;1999.90;999.90;;;;;;;6.74;100.00;97609.63;5052756;28;20094;-75
2022/12/23 06:33:51;;;;;;;1999.90;999.90;;;;;;;6.73;100.00;97616.16;5052865;28;20029;-75
2022/12/23 06:36:17;;;;;;;1999.90;999.90;;;;;;;6.69;100.00;97612.38;5052784;28;20475;-75
2022/12/23 06:38:42;;;;;;;1999.90;999.90;;;;;;;6.77;100.00;97613.69;5053735;28;20026;-76
2022/12/23 06:41:08;;;;;;;1999.90;999.90;;;;;;;6.58;100.00;97618.16;5069296;28;20051;-76
2022/12/23 06:43:33;;;;;;;1999.90;999.90;;;;;;;6.72;100.00;97613.72;5074409;28;20031;-75
2022/12/23 06:45:58;;;;;;;1999.90;999.90;;;;;;;6.87;100.00;97625.34;5072615;28;20037;-76
2022/12/23 06:48:24;;;;;;;1999.90;999.90;;;;;;;6.94;100.00;97634.00;5072588;28;20016;-77
2022/12/23 06:50:49;;;;;;;1999.90;999.90;;;;;;;6.86;100.00;97626.41;5072502;28;20389;-75
2022/12/23 06:53:14;;;;;;;1999.90;999.90;;;;;;;6.89;100.00;97644.88;5072929;28;20030;-76
2022/12/23 06:55:40;;;;;;;1999.90;999.90;;;;;;;6.90;100.00;97635.66;5072600;28;20012;-75
2022/12/23 06:58:05;;;;;;;1999.90;999.90;;;;;;;6.91;100.00;97641.91;5071941;28;20413;-76
2022/12/23 07:00:30;;;;;;;1999.90;999.90;;;;;;;6.86;100.00;97648.16;5070652;28;20029;-75
2022/12/23 07:02:56;;;;;;;1999.90;999.90;;;;;;;6.84;100.00;97657.69;5072271;28;20035;-75
2022/12/23 07:05:22;;;;;;;1999.90;999.90;;;;;;;6.87;100.00;97657.13;5071770;28;20409;-75
2022/12/23 07:07:47;;;;;;;1999.90;999.90;;;;;;;6.80;100.00;97643.03;5072235;28;20035;-75
2022/12/23 07:10:13;;;;;;;1999.90;999.90;;;;;;;6.53;100.00;97634.44;5071907;28;20028;-75
2022/12/23 07:12:38;;;;;;;1999.90;999.90;;;;;;;6.57;100.00;97644.50;5072125;28;20027;-76
2022/12/23 07:15:05;;;;;;;1999.90;999.90;;;;;;;6.67;100.00;97668.88;5055169;28;20149;-76
2022/12/23 07:17:31;;;;;;;1999.90;999.90;;;;;;;6.66;100.00;97650.97;5053833;28;20021;-74
2022/12/23 07:19:56;;;;;;;1999.90;999.90;;;;;;;6.55;100.00;97638.50;5068269;28;20024;-85
2022/12/23 07:22:21;;;;;;;1999.90;999.90;;;;;;;6.51;100.00;97631.19;5072650;28;20035;-75
2022/12/23 07:24:47;;;;;;;1999.90;999.90;;;;;;;6.61;100.00;97636.59;5071844;28;20918;-75
2022/12/23 07:27:12;;;;;;;1999.90;999.90;;;;;;;6.66;100.00;97634.69;5071763;28;20481;-75
2022/12/23 07:29:37;;;;;;;1999.90;999.90;;;;;;;6.68;100.00;97632.47;5070511;28;20024;-75
2022/12/23 07:32:03;;;;;;;1999.90;999.90;;;;;;;6.68;100.00;97637.91;5071461;28;20112;-75
2022/12/23 07:34:28;;;;;;;1999.90;999.90;;;;;;;6.62;100.00;97632.78;5071659;28;20020;-75
2022/12/23 07:36:54;;;;;;;1999.90;999.90;;;;;;;6.74;100.00;97646.84;5071529;28;20117;-75
2022/12/23 07:39:20;;;;;;;1999.90;999.90;;;;;;;6.81;100.00;97641.94;5071479;28;20380;-76
2022/12/23 07:41:45;;;;;;;1999.90;999.90;;;;;;;6.84;100.00;97649.53;5071408;28;20523;-75
2022/12/23 07:44:12;;;;;;;1999.90;999.90;;;;;;;6.90;100.00;97641.06;5071545;28;20032;-75
2022/12/23 07:46:37;;;;;;;1999.90;999.90;;;;;;;6.80;100.00;97640.31;5073689;28;20024;-77
2022/12/23 07:49:03;;;;;;;1999.90;999.90;;;;;;;6.85;100.00;97646.56;5075046;28;20047;-74
2022/12/23 07:51:28;;;;;;;1999.90;999.90;;;;;;;6.88;100.00;97651.44;5071836;28;20381;-74
2022/12/23 07:53:54;;;;;;;1999.90;999.90;;;;;;;6.96;100.00;97659.00;5071708;28;20473;-74
2022/12/23 07:56:19;;;;;;;1999.90;999.90;;;;;;;7.02;100.00;97653.56;5070796;28;20035;-74
2022/12/23 07:58:49;;;;;;;1999.90;999.90;;;;;;;7.02;100.00;97659.00;5069733;28;20031;-74
2022/12/23 08:01:14;;;;;;;1999.90;999.90;;;;;;;6.96;100.00;97667.16;5069907;28;20148;-74
2022/12/23 08:03:39;;;;;;;1999.90;999.90;;;;;;;7.05;100.00;97663.88;5071160;28;20025;-75
2022/12/23 08:06:14;;;;;;;1999.90;999.90;;;;;;;6.98;100.00;97672.31;5070814;28;20052;-76
2022/12/23 08:08:40;;;;;;;1999.90;999.90;;;;;;;7.01;100.00;97679.91;5069635;28;20082;-74
2022/12/23 08:11:08;;;;;;;1999.90;999.90;;;;;;;7.08;100.00;97674.97;5071431;28;20030;-74
2022/12/23 08:13:36;;;;;;;1999.90;999.90;;;;;;;7.12;100.00;97664.34;5073674;28;20020;-78
2022/12/23 08:16:02;;;;;;;1999.90;999.90;;;;;;;7.08;100.00;97674.97;5074542;28;20115;-74
2022/12/23 08:18:34;;;;;;;1999.90;999.90;;;;;;;7.15;100.00;97689.09;5070987;28;20036;-74
2022/12/23 08:21:01;;;;;;;1999.90;999.90;;;;;;;7.12;100.00;97684.19;5071007;28;20025;-74
2022/12/23 08:23:29;;;;;;;1999.90;999.90;;;;;;;7.20;100.00;97689.06;5069666;28;20029;-74
2022/12/23 08:26:01;;;;;;;1999.90;999.90;;;;;;;7.15;100.00;97685.53;5070692;28;20033;-74
2022/12/23 08:28:27;;;;;;;1999.90;999.90;;;;;;;7.13;100.00;97685.84;5071073;28;20358;-74
2022/12/23 08:30:53;;;;;;;1999.90;999.90;;;;;;;7.08;100.00;97685.84;5070664;28;20031;-74
2022/12/23 08:33:18;;;;;;;1999.90;999.90;;;;;;;7.12;100.00;97681.47;5070842;28;20032;-74
2022/12/23 08:35:43;;;;;;;1999.90;999.90;;;;;;;7.14;100.00;97682.00;5070825;28;20067;-74
2022/12/23 08:38:09;;;;;;;1999.90;999.90;;;;;;;7.17;100.00;97686.91;5070553;28;20039;-74
2022/12/23 08:40:34;;;;;;;1999.90;999.90;;;;;;;7.20;100.00;97689.06;5070483;28;20031;-74
2022/12/23 08:42:59;;;;;;;1999.90;999.90;;;;;;;7.19;100.00;97676.56;5070870;28;20031;-74
2022/12/23 08:45:25;;;;;;;1999.90;999.90;;;;;;;7.33;100.00;97674.81;5070664;28;20047;-74
2022/12/23 08:47:51;;;;;;;1999.90;999.90;;;;;;;7.47;100.00;97681.28;5070506;28;20036;-74
2022/12/23 08:50:16;;;;;;;1999.90;999.90;;;;;;;7.43;100.00;97693.81;5070547;28;20031;-74
2022/12/23 08:52:41;;;;;;;1999.90;999.90;;;;;;;7.51;100.00;97698.69;5070682;28;20016;-74
2022/12/23 08:55:07;;;;;;;1999.90;999.90;;;;;;;7.53;100.00;97704.66;5070563;28;20028;-74
2022/12/23 08:57:33;;;;;;;1999.90;999.90;;;;;;;7.61;100.00;97705.16;5070953;28;20075;-75
2022/12/23 08:59:58;;;;;;;1999.90;999.90;;;;;;;7.58;100.00;97700.28;5070478;28;20035;-74
2022/12/23 09:02:23;;;;;;;1999.90;999.90;;;;;;;7.57;100.00;97698.63;5052822;28;20039;-74
2022/12/23 09:04:49;;;;;;;1999.90;999.90;;;;;;;7.66;100.00;97689.59;5070257;28;20128;-74
2022/12/23 09:07:14;;;;;;;1999.90;999.90;;;;;;;7.74;100.00;97686.25;5069134;28;20107;-74
2022/12/23 09:09:39;;;;;;;1999.90;999.90;;;;;;;7.83;100.00;97692.72;5070493;28;20036;-74
2022/12/23 09:12:05;;;;;;;1999.90;999.90;;;;;;;7.86;100.00;97696.81;5070362;28;20025;-74
2022/12/23 09:14:30;;;;;;;1999.90;999.90;;;;;;;7.89;100.00;97701.69;5070399;28;20031;-74
2022/12/23 09:16:55;;;;;;;1999.90;999.90;;;;;;;7.92;100.00;97704.66;5071393;28;20046;-74
2022/12/23 09:19:21;;;;;;;1999.90;999.90;;;;;;;7.89;100.00;97699.75;5072148;28;20056;-79
2022/12/23 09:21:46;;;;;;;1999.90;999.90;;;;;;;7.86;100.00;97713.16;5071479;28;20024;-74
2022/12/23 09:24:11;;;;;;;1999.90;999.90;;;;;;;8.00;100.00;97708.66;5071651;28;20131;-79
2022/12/23 09:26:37;;;;;;;1999.90;999.90;;;;;;;8.00;100.00;97708.66;5070691;28;20028;-74
2022/12/23 09:29:02;;;;;;;1999.90;999.90;;;;;;;8.05;100.00;97705.88;5070747;28;20366;-74
2022/12/23 09:31:28;;;;;;;1999.90;999.90;;;;;;;8.13;100.00;97702.56;5070421;28;20021;-74
2022/12/23 09:33:53;;;;;;;1999.90;999.90;;;;;;;8.17;100.00;97709.06;5069323;28;20028;-75
2022/12/23 09:36:20;;;;;;;1999.90;999.90;;;;;;;8.12;100.00;97705.56;5073840;28;20112;-89
2022/12/23 09:38:45;;;;;;;1999.90;999.90;;;;;;;8.17;100.00;97690.00;5072951;28;20389;-74
2022/12/23 09:41:26;;;;;;;1999.90;999.90;;;;;;;8.24;100.00;97692.41;5068830;28;20033;-74
2022/12/23 09:44:11;;;;;;;1999.90;999.90;;;;;;;8.27;100.00;97692.63;5070069;28;20516;-74
2022/12/23 09:46:46;;;;;;;1999.90;999.90;;;;;;;8.43;100.00;97688.69;5070104;28;20114;-74
2022/12/23 09:49:15;;;;;;;1999.90;999.90;;;;;;;8.46;100.00;97690.81;5070122;28;20045;-74
2022/12/23 09:51:41;;;;;;;1999.90;999.90;;;;;;;8.47;100.00;97680.75;5069870;28;20025;-74
2022/12/23 09:54:29;;;;;;;1999.90;999.90;;;;;;;8.63;100.00;97686.84;5073987;28;20032;-75
2022/12/23 09:57:03;;;;;;;1999.90;999.90;;;;;;;8.78;100.00;97683.94;5071473;28;20067;-75
2022/12/23 09:59:56;;;;;;;1999.90;999.90;;;;;;;8.94;100.00;97679.94;5074809;28;20029;-74
2022/12/23 10:02:45;;;;;;;1999.90;999.90;;;;;;;8.93;100.00;97667.41;5074486;28;20029;-74
2022/12/23 10:05:47;;;;;;;1999.90;999.90;;;;;;;8.87;100.00;97674.00;5073883;28;20075;-74
2022/12/23 10:08:32;;;;;;;1999.90;999.90;;;;;;;8.92;100.00;97679.44;5073621;28;20020;-75
2022/12/23 10:11:06;;;;;;;1999.90;999.90;;;;;;;8.87;100.00;97679.47;5073687;28;20021;-74
2022/12/23 10:13:44;;;;;;;1999.90;999.90;;;;;;;8.86;100.00;97678.69;5073718;28;20021;-75
2022/12/23 10:16:22;;;;;;;1999.90;999.90;;;;;;;8.97;100.00;97682.09;5072080;28;20021;-75
2022/12/23 10:18:54;;;;;;;1999.90;999.90;;;;;;;9.03;100.00;97667.28;5073397;28;20095;-75
2022/12/23 10:21:39;;;;;;;1999.90;999.90;;;;;;;9.01;100.00;97653.94;5075718;28;20054;-81
2022/12/23 10:24:32;;;;;;;1999.90;999.90;;;;;;;8.94;100.00;97658.13;5078249;28;20040;-76
2022/12/23 10:27:05;;;;;;;1999.90;999.90;;;;;;;9.15;100.00;97659.47;5072151;28;20032;-75
2022/12/23 10:29:32;;;;;;;1999.90;999.90;;;;;;;9.23;100.00;97658.00;5073860;28;20016;-75
2022/12/23 10:32:16;;;;;;;1999.90;999.90;;;;;;;9.27;100.00;97664.53;5073194;28;20488;-75
2022/12/23 10:34:56;;;;;;;1999.90;999.90;;;;;;;9.28;100.00;97658.75;5073070;28;20020;-75
2022/12/23 10:37:41;;;;;;;1999.90;999.90;;;;;;;9.35;100.00;97656.47;5071598;28;20040;-75
2022/12/23 10:40:27;;;;;;;1999.90;999.90;;;;;;;9.40;100.00;97661.84;5073058;28;20078;-75
2022/12/23 10:43:30;;;;;;;1999.90;999.90;;;;;;;9.47;100.00;97667.75;5071597;28;20043;-74
2022/12/23 10:46:14;;;;;;;1999.90;999.90;;;;;;;9.48;100.00;97674.03;5072936;28;20115;-75
2022/12/23 10:49:02;;;;;;;1999.90;999.90;;;;;;;9.54;100.00;97697.44;5071565;28;20035;-75
2022/12/23 10:51:37;;;;;;;1999.90;999.90;;;;;;;9.62;100.00;97686.66;5072930;28;20052;-75
2022/12/23 10:54:11;;;;;;;1999.90;999.90;;;;;;;9.58;100.00;97691.09;5072828;28;20056;-75
2022/12/23 10:56:37;;;;;;;1999.90;999.90;;;;;;;9.57;100.00;97711.31;5072384;28;20021;-75
2022/12/23 10:59:05;;;;;;;1999.90;999.90;;;;;;;9.61;100.00;97695.16;5072874;28;20108;-75
2022/12/23 11:01:31;;;;;;;1999.90;999.90;;;;;;;9.69;100.00;97697.19;5072699;28;20385;-75
2022/12/23 11:04:13;;;;;;;1999.90;999.90;;;;;;;9.61;100.00;97689.69;5072403;28;20029;-75
2022/12/23 11:06:45;;;;;;;1999.90;999.90;;;;;;;9.81;100.00;97692.09;5072393;28;20516;-75
2022/12/23 11:09:26;;;;;;;1999.90;999.90;;;;;;;9.89;100.00;97690.63;5069784;28;20029;-75
2022/12/23 11:12:05;;;;;;;1999.90;999.90;;;;;;;9.95;100.00;97689.44;5072433;28;20070;-78
2022/12/23 11:14:50;;;;;;;1999.90;999.90;;;;;;;9.88;100.00;97689.00;5068896;28;20029;-75
2022/12/23 11:17:24;;;;;;;1999.90;999.90;;;;;;;10.01;100.00;97688.25;5083248;28;20043;-75
2022/12/23 11:20:22;;;;;;;1999.90;999.90;;;;;;;10.04;100.00;97684.91;5074600;28;20103;-74
2022/12/23 11:23:00;;;;;;;1999.90;999.90;;;;;;;10.12;100.00;97682.31;5055248;28;20220;-75
2022/12/23 11:25:42;;;;;;;1999.90;999.90;;;;;;;10.20;100.00;97678.13;5080838;28;20044;-82
2022/12/23 11:28:18;;;;;;;1999.90;999.90;;;;;;;10.37;100.00;97674.81;5091604;28;20032;-75
2022/12/23 11:30:49;;;;;;;1999.90;999.90;;;;;;;10.46;100.00;97668.34;5074694;28;20098;-75